Time;durP1;ratioP1;P1;durP2;ratioP2;P2;SDS_P1;SDS_P2;PMS_P1;PMS_P2;Temp;Humidity;BMP_temperature;BMP_pressure;BME280_temperature;BME280_humidity;BME280_pressure;Samples;Min_cycle;Max_cycle;Signal;HPM_P1;HPM_P2
2023/02/12 00:00:55;;;;;;;49.97;32.97;;;5.20;99.90;;;;;;5029434;28;20518;-73
2023/02/12 00:03:41;;;;;;;44.47;29.97;;;5.10;99.90;;;;;;5031895;28;20520;-74
2023/02/12 00:06:28;;;;;;;46.63;31.17;;;5.20;99.90;;;;;;5063600;22;20646;-75
2023/02/12 00:09:13;;;;;;;55.60;32.37;;;5.30;99.90;;;;;;5045582;28;20475;-75
2023/02/12 00:11:59;;;;;;;45.87;31.60;;;5.20;99.90;;;;;;5049444;28;20777;-75
2023/02/12 00:14:45;;;;;;;40.45;28.30;;;5.20;99.90;;;;;;5046585;28;20443;-75
2023/02/12 00:17:30;;;;;;;44.77;30.97;;;5.30;99.90;;;;;;5038269;28;20206;-75
2023/02/12 00:20:16;;;;;;;45.22;28.95;;;5.40;99.90;;;;;;5028142;28;20452;-74
2023/02/12 00:23:03;;;;;;;41.70;27.47;;;5.50;99.90;;;;;;5025350;28;20303;-75
2023/02/12 00:25:48;;;;;;;40.28;27.85;;;5.60;99.90;;;;;;5032751;28;20448;-74
2023/02/12 00:28:35;;;;;;;48.70;29.85;;;5.60;99.90;;;;;;5032875;28;20205;-74
2023/02/12 00:31:22;;;;;;;40.50;26.63;;;5.60;99.90;;;;;;5029973;28;20210;-75
2023/02/12 00:34:09;;;;;;;43.10;28.47;;;5.50;99.90;;;;;;5030089;28;20841;-75
2023/02/12 00:36:55;;;;;;;39.57;27.43;;;5.40;99.90;;;;;;5025937;28;20428;-75
2023/02/12 00:39:42;;;;;;;49.10;28.10;;;5.40;99.90;;;;;;5029093;28;20448;-75
2023/02/12 00:42:27;;;;;;;40.30;27.02;;;5.50;99.90;;;;;;5032413;28;20507;-74
2023/02/12 00:45:13;;;;;;;41.83;28.73;;;5.50;99.90;;;;;;5031702;28;20599;-74
2023/02/12 00:47:59;;;;;;;38.27;27.00;;;5.50;99.90;;;;;;5025480;28;20433;-75
2023/02/12 00:50:45;;;;;;;48.53;31.57;;;5.50;99.90;;;;;;5025442;28;20814;-75
2023/02/12 00:53:32;;;;;;;49.67;30.55;;;5.50;99.90;;;;;;5032477;28;20483;-75
2023/02/12 00:56:19;;;;;;;44.60;29.27;;;5.50;99.90;;;;;;5032766;28;20352;-75
2023/02/12 00:59:05;;;;;;;47.80;27.60;;;5.50;99.90;;;;;;5026082;28;20451;-75
2023/02/12 01:01:52;;;;;;;39.60;28.85;;;5.40;99.90;;;;;;5024916;28;20429;-74
2023/02/12 01:04:37;;;;;;;40.03;27.37;;;5.40;99.90;;;;;;5032177;28;20244;-75
2023/02/12 01:07:23;;;;;;;47.40;30.17;;;5.30;99.90;;;;;;5027621;28;20908;-75
2023/02/12 01:10:10;;;;;;;46.13;29.80;;;5.20;99.90;;;;;;5023612;28;20536;-74
2023/02/12 01:12:57;;;;;;;48.47;29.87;;;5.10;99.90;;;;;;5027994;28;20476;-75
2023/02/12 01:15:42;;;;;;;51.35;33.33;;;5.00;99.90;;;;;;5030825;28;20463;-75
2023/02/12 01:18:28;;;;;;;45.93;30.67;;;5.10;99.90;;;;;;5030178;28;20213;-75
2023/02/12 01:21:15;;;;;;;53.53;34.85;;;5.10;99.90;;;;;;5028736;28;20786;-75
2023/02/12 01:24:02;;;;;;;57.20;36.70;;;5.10;99.90;;;;;;5033377;28;20332;-75
2023/02/12 01:26:47;;;;;;;48.40;32.45;;;5.10;99.90;;;;;;5030940;28;20449;-75
2023/02/12 01:29:34;;;;;;;53.03;35.83;;;5.10;99.90;;;;;;5029537;28;20208;-75
2023/02/12 01:32:20;;;;;;;55.10;36.45;;;5.10;99.90;;;;;;5032124;28;20809;-75
2023/02/12 01:35:08;;;;;;;53.93;35.87;;;5.20;99.90;;;;;;5027251;28;20225;-74
2023/02/12 01:37:54;;;;;;;53.65;34.65;;;5.30;99.90;;;;;;5029905;28;20512;-75
2023/02/12 01:40:40;;;;;;;50.10;33.50;;;5.40;99.90;;;;;;5038386;28;20213;-75
2023/02/12 01:43:25;;;;;;;50.15;33.83;;;5.50;99.90;;;;;;5032286;28;20762;-75
2023/02/12 01:46:14;;;;;;;52.80;32.50;;;5.40;99.90;;;;;;5027177;28;20718;-75
2023/02/12 01:49:01;;;;;;;52.28;33.90;;;5.40;99.90;;;;;;5027859;28;20444;-75
2023/02/12 01:51:53;;;;;;;47.05;33.35;;;5.40;99.90;;;;;;5031260;28;20606;-75
2023/02/12 01:54:39;;;;;;;56.90;35.40;;;5.40;99.90;;;;;;5031263;28;20356;-75
2023/02/12 01:57:25;;;;;;;57.20;34.38;;;5.40;99.90;;;;;;5039938;28;20999;-75
2023/02/12 02:00:14;;;;;;;53.03;34.58;;;5.40;99.90;;;;;;5027521;28;20225;-75
2023/02/12 02:03:02;;;;;;;53.33;37.70;;;5.50;99.90;;;;;;5024520;28;20208;-75
2023/02/12 02:05:54;;;;;;;55.03;34.78;;;5.50;99.90;;;;;;5030956;28;20479;-75
2023/02/12 02:08:41;;;;;;;52.97;35.03;;;5.60;99.90;;;;;;5022649;28;20210;-75
2023/02/12 02:14:33;;;;;;;52.07;34.27;;;5.50;99.90;;;;;;5036527;28;20472;-75
2023/02/12 02:17:37;;;;;;;53.25;34.85;;;5.40;99.90;;;;;;5032088;28;20436;-75
2023/02/12 02:20:51;;;;;;;49.07;32.53;;;5.50;99.90;;;;;;5024080;28;20737;-75
2023/02/12 02:23:54;;;;;;;63.35;37.05;;;5.50;99.90;;;;;;5030146;28;20516;-74
2023/02/12 02:27:03;;;;;;;47.50;33.33;;;5.50;99.90;;;;;;5030113;28;20225;-75
2023/02/12 02:30:13;;;;;;;48.83;33.33;;;5.50;99.90;;;;;;5019641;28;21013;-75
2023/02/12 02:33:14;;;;;;;58.47;34.17;;;5.40;99.90;;;;;;5027885;28;20325;-75
2023/02/12 02:36:12;;;;;;;53.28;35.92;;;5.40;99.90;;;;;;5020520;28;20452;-75
2023/02/12 02:39:04;;;;;;;45.07;30.03;;;5.30;99.90;;;;;;5016533;28;20301;-75
2023/02/12 02:41:56;;;;;;;45.30;29.80;;;5.40;99.90;;;;;;5031348;28;20568;-75
2023/02/12 02:44:48;;;;;;;46.13;30.27;;;5.50;99.90;;;;;;5033846;28;20424;-74
2023/02/12 02:47:39;;;;;;;46.73;30.37;;;5.40;99.90;;;;;;5032817;28;20451;-74
2023/02/12 02:50:29;;;;;;;42.73;30.33;;;5.50;99.90;;;;;;5028530;28;20842;-75
2023/02/12 02:53:20;;;;;;;47.03;31.63;;;5.50;99.90;;;;;;5026602;28;20959;-74
2023/02/12 02:56:09;;;;;;;47.92;31.63;;;5.60;99.90;;;;;;5032426;28;20453;-75
2023/02/12 02:58:59;;;;;;;48.03;33.75;;;5.70;99.90;;;;;;5017849;28;20271;-75
2023/02/12 03:01:48;;;;;;;47.77;33.17;;;5.70;99.90;;;;;;5030518;28;20213;-75
2023/02/12 03:04:38;;;;;;;43.00;30.70;;;5.70;99.90;;;;;;5031735;28;20436;-75
2023/02/12 03:07:29;;;;;;;47.33;32.57;;;5.80;99.90;;;;;;5025640;28;20444;-75
2023/02/12 03:10:19;;;;;;;45.70;31.97;;;5.70;99.90;;;;;;5031287;28;20437;-75
2023/02/12 03:13:09;;;;;;;53.00;31.92;;;5.60;99.90;;;;;;5033525;28;20988;-75
2023/02/12 03:16:00;;;;;;;50.90;31.13;;;5.50;99.90;;;;;;5029095;28;20604;-75
2023/02/12 03:18:49;;;;;;;52.33;32.27;;;5.50;99.90;;;;;;5029233;28;20810;-75
2023/02/12 03:21:40;;;;;;;52.97;33.60;;;5.50;99.90;;;;;;5028537;28;20811;-75
2023/02/12 03:24:32;;;;;;;54.13;32.90;;;5.50;99.90;;;;;;5033361;28;20670;-75
2023/02/12 03:27:22;;;;;;;46.70;31.97;;;5.50;99.90;;;;;;5027283;28;20518;-75
2023/02/12 03:30:09;;;;;;;48.63;31.13;;;5.50;99.90;;;;;;5034385;28;20433;-75
2023/02/12 03:33:01;;;;;;;50.23;32.80;;;5.50;99.90;;;;;;5022868;28;20435;-75
2023/02/12 03:35:56;;;;;;;56.47;32.00;;;5.50;99.90;;;;;;5026851;28;20452;-75
2023/02/12 03:38:46;;;;;;;41.87;28.37;;;5.50;99.90;;;;;;5031170;28;20929;-75
2023/02/12 03:41:40;;;;;;;47.95;32.63;;;5.50;99.90;;;;;;5034508;28;20783;-75
2023/02/12 03:44:43;;;;;;;42.37;29.73;;;5.40;99.90;;;;;;5034447;28;20214;-75
2023/02/12 03:47:39;;;;;;;43.83;29.93;;;5.30;99.90;;;;;;5024151;28;20449;-75
2023/02/12 03:50:32;;;;;;;48.92;30.73;;;5.30;99.90;;;;;;5030758;28;20680;-75
2023/02/12 03:53:17;;;;;;;47.00;29.50;;;5.30;99.90;;;;;;5030133;28;20201;-75
2023/02/12 03:56:08;;;;;;;51.30;34.13;;;5.40;99.90;;;;;;5032979;28;20804;-75
2023/02/12 03:58:55;;;;;;;45.03;30.30;;;5.40;99.90;;;;;;5023457;28;20613;-75
2023/02/12 04:01:42;;;;;;;48.27;32.57;;;5.40;99.90;;;;;;5033520;28;20893;-75
2023/02/12 04:04:28;;;;;;;54.73;31.93;;;5.40;99.90;;;;;;5027671;28;20433;-75
2023/02/12 04:07:14;;;;;;;45.88;32.33;;;5.50;99.90;;;;;;5028040;28;20952;-75
2023/02/12 04:10:00;;;;;;;49.60;32.03;;;5.60;99.90;;;;;;5031920;28;20735;-75
2023/02/12 04:12:54;;;;;;;54.80;32.00;;;5.60;99.90;;;;;;5036513;28;20817;-75
2023/02/12 04:15:53;;;;;;;42.30;30.57;;;5.50;99.90;;;;;;5031888;28;20880;-75
2023/02/12 04:18:42;;;;;;;51.93;33.00;;;5.40;99.90;;;;;;5031612;28;20491;-75
2023/02/12 04:21:43;;;;;;;47.83;31.83;;;5.40;99.90;;;;;;5033435;28;20960;-75
2023/02/12 04:24:39;;;;;;;42.50;31.47;;;5.50;99.90;;;;;;5033583;28;20209;-75
2023/02/12 04:27:35;;;;;;;48.88;31.98;;;5.50;99.90;;;;;;5026822;28;20518;-75
2023/02/12 04:30:23;;;;;;;44.90;31.57;;;5.50;99.90;;;;;;5033389;28;20210;-75
2023/02/12 04:33:16;;;;;;;49.57;31.73;;;5.50;99.90;;;;;;5032280;28;20424;-75
2023/02/12 04:36:06;;;;;;;46.47;30.23;;;5.50;99.90;;;;;;5023948;28;20591;-75
2023/02/12 04:38:55;;;;;;;50.47;31.30;;;5.40;99.90;;;;;;5030705;28;20436;-75
2023/02/12 04:41:41;;;;;;;46.92;29.52;;;5.50;99.90;;;;;;5032064;28;20428;-75
2023/02/12 04:44:29;;;;;;;47.73;33.00;;;5.60;99.90;;;;;;5032432;28;20589;-75
2023/02/12 04:47:16;;;;;;;50.33;31.80;;;5.50;99.90;;;;;;5028981;28;20460;-75
2023/02/12 04:50:03;;;;;;;45.75;30.83;;;5.50;99.90;;;;;;5028821;28;20421;-75
2023/02/12 04:52:49;;;;;;;40.63;31.23;;;5.50;99.90;;;;;;5032752;28;20205;-75
2023/02/12 04:55:35;;;;;;;46.20;30.57;;;5.50;99.90;;;;;;5030534;28;20229;-75
2023/02/12 04:58:21;;;;;;;49.63;33.57;;;5.50;99.90;;;;;;5029032;28;20503;-75
2023/02/12 05:01:06;;;;;;;44.30;30.83;;;5.40;99.90;;;;;;5027286;28;20809;-75
2023/02/12 05:03:53;;;;;;;47.03;31.90;;;5.40;99.90;;;;;;5029186;28;20197;-74
2023/02/12 05:06:40;;;;;;;40.47;30.50;;;5.50;99.90;;;;;;5025731;28;20480;-75
2023/02/12 05:09:25;;;;;;;42.50;32.25;;;5.50;99.90;;;;;;5024753;28;20222;-75
2023/02/12 05:12:11;;;;;;;43.58;32.45;;;5.50;99.90;;;;;;5027356;28;20236;-75
2023/02/12 05:14:58;;;;;;;40.87;30.67;;;5.50;99.90;;;;;;5017227;28;20222;-75
2023/02/12 05:17:44;;;;;;;56.60;32.83;;;5.50;99.90;;;;;;5025216;28;20414;-75
2023/02/12 05:20:30;;;;;;;44.23;29.00;;;5.50;99.90;;;;;;5027461;28;20436;-75
2023/02/12 05:23:17;;;;;;;44.95;29.15;;;5.40;99.90;;;;;;5031220;28;20432;-75
2023/02/12 05:26:05;;;;;;;41.63;29.03;;;5.50;99.90;;;;;;5026859;28;20217;-75
2023/02/12 05:28:51;;;;;;;40.67;27.93;;;5.40;99.90;;;;;;5032478;28;20425;-75
2023/02/12 05:31:36;;;;;;;39.17;29.63;;;5.30;99.90;;;;;;5030835;28;20433;-74
2023/02/12 05:34:22;;;;;;;45.83;30.33;;;5.10;99.90;;;;;;5028007;28;21033;-75
2023/02/12 05:37:08;;;;;;;43.03;29.23;;;5.10;99.90;;;;;;5026901;28;20205;-75
2023/02/12 05:39:55;;;;;;;41.37;27.47;;;5.20;99.90;;;;;;5038884;28;20201;-75
2023/02/12 05:42:40;;;;;;;45.70;27.73;;;5.10;99.90;;;;;;5030355;28;20507;-75
2023/02/12 05:45:28;;;;;;;47.30;30.53;;;5.00;99.90;;;;;;5026175;28;20463;-75
2023/02/12 05:48:13;;;;;;;40.77;28.47;;;4.90;99.90;;;;;;5027415;28;20436;-75
2023/02/12 05:51:03;;;;;;;34.97;26.93;;;4.90;99.90;;;;;;5024048;28;20424;-75
2023/02/12 05:53:50;;;;;;;39.53;26.85;;;4.80;99.90;;;;;;5031643;28;20475;-75
2023/02/12 05:56:42;;;;;;;35.43;27.40;;;4.90;99.90;;;;;;5028016;28;20301;-75
2023/02/12 05:59:27;;;;;;;39.47;27.50;;;4.80;99.90;;;;;;5029697;28;20433;-75
2023/02/12 06:02:13;;;;;;;39.60;28.13;;;4.90;99.90;;;;;;5031367;28;20213;-75
2023/02/12 06:04:58;;;;;;;40.03;26.15;;;4.90;99.90;;;;;;5027912;28;20485;-73
2023/02/12 06:07:44;;;;;;;37.53;28.50;;;4.90;99.90;;;;;;5031392;28;20189;-73
2023/02/12 06:10:30;;;;;;;38.85;26.92;;;4.90;99.90;;;;;;5031406;28;20424;-73
2023/02/12 06:13:16;;;;;;;52.65;27.55;;;4.90;99.90;;;;;;5046430;28;20355;-74
2023/02/12 06:16:02;;;;;;;37.20;27.40;;;4.90;99.90;;;;;;5042136;28;20295;-74
2023/02/12 06:18:48;;;;;;;39.20;26.73;;;5.00;99.90;;;;;;5013045;28;20549;-74
2023/02/12 06:21:34;;;;;;;35.70;27.88;;;4.90;99.90;;;;;;5028997;28;20309;-74
2023/02/12 06:24:19;;;;;;;40.25;27.80;;;4.80;99.90;;;;;;5030894;28;20568;-74
2023/02/12 06:27:05;;;;;;;46.65;30.15;;;4.70;99.90;;;;;;5030764;28;20325;-74
2023/02/12 06:29:52;;;;;;;41.92;29.13;;;4.50;99.90;;;;;;5017765;28;20205;-74
2023/02/12 06:32:37;;;;;;;48.22;32.45;;;4.60;99.90;;;;;;5030919;28;20201;-74
2023/02/12 06:35:23;;;;;;;43.88;27.90;;;4.60;99.90;;;;;;5028896;28;20249;-73
2023/02/12 06:38:10;;;;;;;43.03;29.77;;;4.70;99.90;;;;;;5031072;28;20276;-74
2023/02/12 06:40:55;;;;;;;49.70;31.38;;;4.70;99.90;;;;;;5031096;28;20217;-74
2023/02/12 06:43:41;;;;;;;39.28;27.98;;;4.70;99.90;;;;;;5031840;28;20244;-74
2023/02/12 06:46:28;;;;;;;42.17;29.23;;;4.70;99.90;;;;;;5023558;28;20225;-74
2023/02/12 06:49:15;;;;;;;40.10;27.27;;;4.80;99.90;;;;;;5034874;28;20189;-74
2023/02/12 06:52:01;;;;;;;41.20;28.43;;;4.90;99.90;;;;;;5035344;28;20205;-74
2023/02/12 06:54:47;;;;;;;37.40;25.85;;;4.90;99.90;;;;;;5033586;28;20475;-74
2023/02/12 06:57:32;;;;;;;47.40;29.27;;;4.90;99.90;;;;;;5014920;28;20615;-74
2023/02/12 07:00:19;;;;;;;41.95;29.70;;;5.00;99.90;;;;;;5015216;28;20406;-74
2023/02/12 07:03:06;;;;;;;47.00;27.85;;;5.00;99.90;;;;;;5027986;28;20578;-74
2023/02/12 07:05:51;;;;;;;42.03;27.90;;;5.10;99.90;;;;;;5030474;28;20702;-74
2023/02/12 07:08:37;;;;;;;41.97;27.83;;;5.10;99.90;;;;;;5034875;28;20448;-74
2023/02/12 07:11:24;;;;;;;42.73;27.90;;;5.10;99.90;;;;;;5022543;28;20420;-74
2023/02/12 07:14:14;;;;;;;39.77;26.90;;;5.20;99.90;;;;;;5030854;28;20477;-74
2023/02/12 07:17:02;;;;;;;37.67;26.67;;;5.30;99.90;;;;;;5033108;28;20416;-74
2023/02/12 07:19:49;;;;;;;40.53;27.37;;;5.40;99.90;;;;;;5025743;28;20210;-74
2023/02/12 07:22:36;;;;;;;49.03;30.00;;;5.40;99.90;;;;;;5018680;28;20420;-74
2023/02/12 07:25:21;;;;;;;45.27;28.87;;;5.50;99.90;;;;;;5030708;28;20623;-74
2023/02/12 07:28:07;;;;;;;38.50;27.27;;;5.50;99.90;;;;;;5027971;28;20491;-74
2023/02/12 07:30:53;;;;;;;49.75;30.13;;;5.50;99.90;;;;;;5034244;28;20689;-74
2023/02/12 07:33:40;;;;;;;39.60;28.53;;;5.60;99.90;;;;;;5029413;28;20250;-74
2023/02/12 07:36:29;;;;;;;44.63;30.67;;;5.50;99.90;;;;;;5024044;28;21012;-74
2023/02/12 07:39:15;;;;;;;51.15;30.10;;;5.50;99.90;;;;;;5034473;28;20424;-74
2023/02/12 07:42:00;;;;;;;42.80;30.33;;;5.50;99.90;;;;;;5034193;28;20725;-74
2023/02/12 07:44:46;;;;;;;43.63;28.20;;;5.60;99.90;;;;;;5029292;28;20453;-74
2023/02/12 07:47:32;;;;;;;43.10;29.00;;;5.60;99.90;;;;;;5019970;28;20556;-74
2023/02/12 07:50:18;;;;;;;47.70;30.40;;;5.60;99.90;;;;;;5039080;28;20457;-73
2023/02/12 07:53:05;;;;;;;50.13;32.10;;;5.60;99.90;;;;;;5043783;28;20460;-73
2023/02/12 07:55:51;;;;;;;71.83;44.33;;;5.50;99.90;;;;;;5049630;28;21096;-74
2023/02/12 07:58:37;;;;;;;50.50;36.90;;;5.60;99.90;;;;;;5036122;28;20964;-74
2023/02/12 08:01:25;;;;;;;74.10;47.63;;;5.60;99.90;;;;;;5034999;28;20467;-74
2023/02/12 08:04:13;;;;;;;99.00;57.47;;;5.60;99.90;;;;;;5030947;28;20562;-74
2023/02/12 08:06:59;;;;;;;120.95;70.30;;;5.60;99.90;;;;;;5025701;28;20420;-74
2023/02/12 08:09:46;;;;;;;86.97;55.20;;;5.80;99.90;;;;;;5033972;28;20209;-74
2023/02/12 08:12:31;;;;;;;98.50;55.67;;;5.90;99.90;;;;;;5033695;28;20433;-74
2023/02/12 08:15:17;;;;;;;115.47;67.27;;;5.90;99.90;;;;;;5033373;28;20471;-74
2023/02/12 08:18:02;;;;;;;105.93;58.77;;;5.90;99.90;;;;;;5033646;28;20429;-74
2023/02/12 08:20:48;;;;;;;77.70;48.73;;;6.00;99.90;;;;;;5032862;28;20575;-74
2023/02/12 08:23:35;;;;;;;77.20;45.57;;;5.90;99.90;;;;;;5032430;28;20441;-74
2023/02/12 08:26:25;;;;;;;71.43;44.13;;;6.00;99.90;;;;;;5033234;28;20448;-74
2023/02/12 08:29:12;;;;;;;67.57;43.80;;;5.90;99.90;;;;;;5033407;28;20424;-73
2023/02/12 08:31:59;;;;;;;54.50;35.77;;;6.10;99.90;;;;;;5032187;28;20480;-74
2023/02/12 08:34:45;;;;;;;54.73;35.60;;;6.10;99.90;;;;;;5032732;28;20451;-73
2023/02/12 08:37:30;;;;;;;55.00;36.80;;;6.20;99.90;;;;;;5033049;28;20497;-74
2023/02/12 08:40:16;;;;;;;54.07;34.77;;;6.20;99.90;;;;;;5032864;28;20425;-74
2023/02/12 08:43:03;;;;;;;62.73;38.43;;;6.30;99.90;;;;;;5032784;28;20428;-73
2023/02/12 08:45:49;;;;;;;56.40;37.13;;;6.30;99.90;;;;;;5032649;28;20534;-74
2023/02/12 08:48:35;;;;;;;58.97;38.37;;;6.40;99.90;;;;;;5029801;28;20929;-74
2023/02/12 08:51:22;;;;;;;51.60;35.27;;;6.40;99.90;;;;;;5026469;28;20436;-73
2023/02/12 08:54:12;;;;;;;49.90;33.63;;;6.50;99.90;;;;;;5022290;28;20499;-73
2023/02/12 08:56:59;;;;;;;55.50;36.50;;;6.50;99.90;;;;;;5031938;28;21189;-74
2023/02/12 08:59:48;;;;;;;57.37;36.50;;;6.40;99.90;;;;;;5032687;28;20452;-74
2023/02/12 09:02:34;;;;;;;60.07;38.50;;;6.50;99.90;;;;;;5025242;28;20790;-73
2023/02/12 09:05:20;;;;;;;59.27;39.10;;;6.50;99.90;;;;;;5028400;28;20468;-74
2023/02/12 09:08:08;;;;;;;58.37;36.40;;;6.60;99.90;;;;;;5020675;28;20901;-73
2023/02/12 09:10:54;;;;;;;55.50;36.23;;;6.60;99.90;;;;;;5024471;28;20420;-74
2023/02/12 09:13:40;;;;;;;60.40;37.60;;;6.70;99.90;;;;;;5019740;28;21044;-74
2023/02/12 09:16:27;;;;;;;59.20;33.13;;;6.70;99.90;;;;;;5013766;28;20490;-74
2023/02/12 09:19:14;;;;;;;49.33;34.33;;;6.80;99.90;;;;;;5017659;28;20433;-74
2023/02/12 09:21:59;;;;;;;51.53;32.40;;;6.80;99.90;;;;;;5025131;28;20505;-73
2023/02/12 09:24:45;;;;;;;50.73;33.07;;;6.90;99.90;;;;;;5020385;28;20471;-74
2023/02/12 09:27:30;;;;;;;53.13;33.93;;;7.00;99.90;;;;;;5031969;28;20425;-73
2023/02/12 09:30:17;;;;;;;45.70;30.73;;;7.10;99.90;;;;;;5032099;28;20421;-73
2023/02/12 09:33:04;;;;;;;51.73;31.50;;;7.20;99.90;;;;;;5030275;28;20479;-73
2023/02/12 09:35:50;;;;;;;50.80;32.23;;;7.20;99.90;;;;;;5031443;28;20615;-73
2023/02/12 09:38:35;;;;;;;49.80;33.60;;;7.20;99.90;;;;;;5029858;28;20480;-73
2023/02/12 09:42:00;;;;;;;44.27;31.60;;;7.30;99.90;;;;;;5031598;28;20540;-73
2023/02/12 09:44:50;;;;;;;58.37;33.00;;;7.40;99.90;;;;;;5014926;28;20493;-72
2023/02/12 09:47:42;;;;;;;48.67;32.80;;;7.30;99.90;;;;;;5029388;28;20452;-73
2023/02/12 09:50:37;;;;;;;51.77;34.33;;;7.30;99.90;;;;;;5022791;28;20452;-73
2023/02/12 09:53:27;;;;;;;53.40;32.47;;;7.40;99.90;;;;;;5025597;28;20449;-73
2023/02/12 09:56:17;;;;;;;62.97;35.20;;;7.50;99.90;;;;;;5029472;28;21017;-73
2023/02/12 09:59:07;;;;;;;52.20;33.67;;;7.50;99.90;;;;;;5026534;28;20428;-73
2023/02/12 10:01:53;;;;;;;49.43;33.10;;;7.60;99.90;;;;;;5031462;28;20511;-73
2023/02/12 10:04:39;;;;;;;53.57;33.30;;;7.50;99.90;;;;;;5022340;28;20449;-73
2023/02/12 10:07:40;;;;;;;69.47;35.47;;;7.50;99.90;;;;;;5027119;28;20814;-72
2023/02/12 10:10:39;;;;;;;52.20;32.40;;;7.60;99.90;;;;;;5021211;28;20453;-73
2023/02/12 10:13:44;;;;;;;64.17;33.60;;;7.70;99.90;;;;;;5020365;28;21043;-73
2023/02/12 10:16:43;;;;;;;63.83;34.80;;;7.80;99.90;;;;;;5021794;28;20476;-73
2023/02/12 10:19:53;;;;;;;57.63;35.17;;;7.80;99.90;;;;;;5027518;28;20975;-73
2023/02/12 10:22:47;;;;;;;55.77;34.07;;;7.80;99.90;;;;;;5021680;28;21117;-73
2023/02/12 10:25:44;;;;;;;62.10;35.17;;;7.80;99.90;;;;;;5026520;28;20534;-73
2023/02/12 10:28:34;;;;;;;60.33;35.40;;;7.90;99.90;;;;;;5032861;28;21012;-73
2023/02/12 10:31:26;;;;;;;64.73;35.70;;;8.00;99.90;;;;;;5029511;28;20416;-73
2023/02/12 10:34:17;;;;;;;66.63;36.53;;;8.10;99.90;;;;;;5025369;28;20436;-72
2023/02/12 10:37:09;;;;;;;58.03;30.87;;;8.20;99.90;;;;;;5030343;28;20470;-73
2023/02/12 10:40:01;;;;;;;60.50;36.60;;;8.30;99.90;;;;;;5025380;28;20452;-73
2023/02/12 10:42:49;;;;;;;68.70;36.17;;;8.30;99.90;;;;;;5027161;28;20447;-73
2023/02/12 10:45:36;;;;;;;59.63;35.40;;;8.30;99.90;;;;;;5027229;28;20459;-73
2023/02/12 10:48:24;;;;;;;63.80;34.73;;;8.40;99.90;;;;;;5016031;28;20958;-72
2023/02/12 10:51:29;;;;;;;55.07;31.30;;;8.40;99.90;;;;;;5021718;28;20444;-73
2023/02/12 10:54:39;;;;;;;55.83;32.67;;;8.50;99.90;;;;;;5023326;28;20444;-73
2023/02/12 10:57:29;;;;;;;60.93;32.87;;;8.50;99.90;;;;;;5026869;28;20476;-73
2023/02/12 11:00:23;;;;;;;58.73;32.83;;;8.60;99.90;;;;;;5025360;28;20400;-73
2023/02/12 11:03:21;;;;;;;60.63;32.87;;;8.70;99.90;;;;;;5019299;28;20539;-73
2023/02/12 11:06:13;;;;;;;56.87;31.40;;;8.70;99.90;;;;;;5023833;28;20452;-73
2023/02/12 11:08:59;;;;;;;60.73;31.87;;;8.80;99.90;;;;;;5030524;28;20440;-73
2023/02/12 11:11:45;;;;;;;56.97;30.27;;;8.80;99.90;;;;;;5029101;28;20444;-73
2023/02/12 11:14:32;;;;;;;61.77;32.60;;;8.90;99.90;;;;;;5021823;28;20519;-73
2023/02/12 11:17:25;;;;;;;50.83;29.97;;;8.90;99.90;;;;;;5025914;28;20476;-73
2023/02/12 11:20:24;;;;;;;49.70;29.37;;;8.90;99.90;;;;;;5027315;28;20972;-73
2023/02/12 11:23:26;;;;;;;53.40;29.50;;;9.00;99.90;;;;;;5025760;28;21026;-73
2023/02/12 11:26:25;;;;;;;56.63;31.07;;;9.00;99.90;;;;;;5025359;28;20495;-73
2023/02/12 11:29:19;;;;;;;56.43;29.43;;;9.00;99.90;;;;;;5024524;28;20840;-73
2023/02/12 11:32:08;;;;;;;59.20;29.80;;;9.10;99.90;;;;;;5028821;28;20498;-73
2023/02/12 11:35:05;;;;;;;48.80;27.00;;;9.10;99.90;;;;;;5029306;28;20440;-73
2023/02/12 11:37:53;;;;;;;54.60;28.70;;;9.20;99.90;;;;;;5033585;28;20840;-73
2023/02/12 11:40:46;;;;;;;49.63;27.50;;;9.20;99.90;;;;;;5031412;28;20794;-73
2023/02/12 11:43:36;;;;;;;49.63;28.40;;;9.20;99.90;;;;;;5030849;28;20425;-73
2023/02/12 11:46:24;;;;;;;52.00;25.33;;;9.20;99.90;;;;;;5031241;28;20427;-73
2023/02/12 11:49:20;;;;;;;50.77;27.43;;;9.20;99.90;;;;;;5026317;28;20431;-73
2023/02/12 11:52:07;;;;;;;43.60;22.70;;;9.20;99.90;;;;;;5025680;28;20523;-73
2023/02/12 11:54:56;;;;;;;40.97;23.67;;;9.30;99.90;;;;;;5029810;28;20452;-73
2023/02/12 11:57:46;;;;;;;37.70;21.33;;;9.30;99.90;;;;;;5031715;28;20468;-73
2023/02/12 12:00:37;;;;;;;37.70;20.40;;;9.40;99.90;;;;;;5033547;28;20805;-73
2023/02/12 12:03:28;;;;;;;24.47;15.10;;;9.40;99.90;;;;;;5026096;28;20440;-73
2023/02/12 12:06:25;;;;;;;33.87;18.37;;;9.40;99.90;;;;;;5056227;22;20589;-77
2023/02/12 12:09:20;;;;;;;36.23;20.03;;;9.50;99.90;;;;;;5051370;28;20436;-77
2023/02/12 12:12:12;;;;;;;21.87;12.50;;;9.50;99.90;;;;;;5040163;28;20450;-77
2023/02/12 12:21:38;;;;;;;15.53;9.50;;;9.90;99.90;;;;;;5044288;28;20811;-76
2023/02/12 12:24:31;;;;;;;16.33;10.60;;;10.10;99.90;;;;;;5049808;28;20427;-77
2023/02/12 12:30:33;;;;;;;13.57;7.97;;;10.70;99.90;;;;;;5050969;28;20435;-77
2023/02/12 12:33:26;;;;;;;15.97;8.80;;;10.90;99.90;;;;;;5050804;28;20461;-77
2023/02/12 12:36:47;;;;;;;13.03;9.13;;;11.10;99.90;;;;;;5047201;28;20578;-77
2023/02/12 12:39:40;;;;;;;12.80;7.73;;;11.40;99.90;;;;;;5051244;28;20952;-77
2023/02/12 12:43:01;;;;;;;14.57;8.90;;;11.60;99.90;;;;;;5047765;28;20506;-76
2023/02/12 12:46:11;;;;;;;13.50;9.17;;;11.80;99.90;;;;;;5052026;28;20451;-77
2023/02/12 12:49:25;;;;;;;15.63;9.13;;;11.90;99.90;;;;;;5049781;28;20427;-77
2023/02/12 12:52:39;;;;;;;12.20;8.17;;;12.30;99.90;;;;;;5037881;28;20443;-77
2023/02/12 12:55:50;;;;;;;11.40;7.50;;;12.70;99.90;;;;;;5049199;28;20498;-77
2023/02/12 12:58:54;;;;;;;13.53;7.73;;;13.10;99.90;;;;;;5051125;28;20936;-76
2023/02/12 13:02:09;;;;;;;13.40;8.60;;;13.40;99.90;;;;;;5048331;28;20463;-76
2023/02/12 13:05:28;;;;;;;10.40;7.20;;;13.50;99.90;;;;;;5050794;28;20492;-77
2023/02/12 13:08:33;;;;;;;14.13;8.30;;;13.60;99.90;;;;;;5049118;28;20403;-77
2023/02/12 13:11:34;;;;;;;10.07;6.30;;;13.90;96.90;;;;;;5049411;28;20484;-77
2023/02/12 13:14:40;;;;;;;11.50;7.57;;;14.00;94.20;;;;;;5049043;28;20484;-76
2023/02/12 13:17:31;;;;;;;12.20;8.30;;;14.00;92.10;;;;;;5053669;28;20453;-77
2023/02/12 13:20:21;;;;;;;11.93;7.37;;;13.90;90.60;;;;;;5042284;28;20432;-77
2023/02/12 13:23:15;;;;;;;10.77;7.50;;;13.90;91.00;;;;;;5047553;28;20545;-77
2023/02/12 13:26:07;;;;;;;12.20;7.37;;;14.30;88.20;;;;;;5046175;28;20447;-77
2023/02/12 13:29:01;;;;;;;12.13;7.67;;;14.30;86.50;;;;;;5045192;28;20448;-74
2023/02/12 13:31:51;;;;;;;10.20;7.20;;;14.50;84.10;;;;;;5047605;28;20452;-76
2023/02/12 13:34:38;;;;;;;11.60;7.77;;;15.00;82.40;;;;;;5049237;28;20427;-76
2023/02/12 13:37:34;;;;;;;10.43;7.00;;;15.30;79.40;;;;;;5049346;28;20470;-75
2023/02/12 13:40:22;;;;;;;11.13;7.33;;;15.40;75.40;;;;;;5036401;28;20427;-76
2023/02/12 13:43:22;;;;;;;12.57;7.10;;;15.40;75.30;;;;;;5040729;28;20447;-75
2023/02/12 13:46:19;;;;;;;10.87;7.13;;;15.70;72.80;;;;;;5043511;28;20471;-74
2023/02/12 13:49:14;;;;;;;9.60;6.13;;;15.90;70.20;;;;;;5047133;28;20418;-74
2023/02/12 13:52:06;;;;;;;9.30;6.63;;;16.20;65.80;;;;;;5036654;28;20975;-74
2023/02/12 13:55:04;;;;;;;8.73;6.33;;;16.40;64.70;;;;;;5047613;28;20427;-74
2023/02/12 13:58:23;;;;;;;8.73;6.40;;;16.60;63.70;;;;;;5037752;28;20484;-74
2023/02/12 14:01:13;;;;;;;9.50;6.10;;;16.80;61.40;;;;;;5042001;28;21029;-74
2023/02/12 14:04:28;;;;;;;11.10;7.10;;;16.60;60.30;;;;;;5046712;28;20490;-74
2023/02/12 14:07:16;;;;;;;11.07;6.77;;;16.20;60.00;;;;;;5044439;28;20439;-74
2023/02/12 14:10:04;;;;;;;9.57;6.03;;;16.20;61.80;;;;;;5042280;28;20414;-73
2023/02/12 14:12:55;;;;;;;11.23;7.07;;;16.50;60.80;;;;;;5043262;28;20836;-74
2023/02/12 14:15:44;;;;;;;10.00;6.90;;;16.40;60.00;;;;;;5049919;28;20433;-74
2023/02/12 14:18:34;;;;;;;10.93;6.90;;;16.60;58.50;;;;;;5046278;28;20566;-74
2023/02/12 14:21:42;;;;;;;9.83;6.53;;;16.50;56.60;;;;;;5044772;28;20463;-74
2023/02/12 14:24:52;;;;;;;12.47;6.70;;;15.70;59.20;;;;;;5039317;28;21056;-74
2023/02/12 14:27:44;;;;;;;9.03;6.00;;;15.20;62.20;;;;;;5042882;28;20443;-74
2023/02/12 14:30:33;;;;;;;12.27;6.60;;;14.70;65.50;;;;;;5044631;28;20965;-74
2023/02/12 14:33:26;;;;;;;10.70;6.70;;;14.20;68.40;;;;;;5047333;28;20422;-74
2023/02/12 14:36:39;;;;;;;11.23;7.37;;;13.80;72.80;;;;;;5046996;28;20978;-74
2023/02/12 14:39:29;;;;;;;12.63;7.20;;;13.40;77.80;;;;;;5044411;28;20439;-73
2023/02/12 14:42:43;;;;;;;11.53;7.07;;;13.00;81.50;;;;;;5048035;28;20417;-74
2023/02/12 14:45:33;;;;;;;11.13;7.80;;;12.60;86.80;;;;;;5046680;28;20447;-72
2023/02/12 14:48:45;;;;;;;17.50;7.60;;;12.50;90.10;;;;;;5045126;28;20411;-74
2023/02/12 14:51:40;;;;;;;11.30;7.50;;;12.40;91.10;;;;;;5039735;28;20456;-73